sensor_id;sensor_type;location;lat;lon;timestamp;noise_LAeq;noise_LA_min;noise_LA_max;noise_LA01;noise_LA95
56099;Laerm;44276;49.534;6.378;2024-03-02T00:00:51;43.91;38.21;61.37;;
56099;Laerm;44276;49.534;6.378;2024-03-02T00:03:22;44.13;37.32;60.07;;
56099;Laerm;44276;49.534;6.378;2024-03-02T00:05:54;45.29;37.52;66.14;;
56099;Laerm;44276;49.534;6.378;2024-03-02T00:08:28;46.54;37.12;65.83;;
56099;Laerm;44276;49.534;6.378;2024-03-02T00:11:05;48.45;37.32;68.84;;
56099;Laerm;44276;49.534;6.378;2024-03-02T00:13:42;45.47;36.69;62.84;;
56099;Laerm;44276;49.534;6.378;2024-03-02T00:16:10;42.18;37.12;56.97;;
56099;Laerm;44276;49.534;6.378;2024-03-02T00:18:39;42.94;37.32;59.37;;
56099;Laerm;44276;49.534;6.378;2024-03-02T00:21:09;42.05;37.52;56.48;;
56099;Laerm;44276;49.534;6.378;2024-03-02T00:23:43;45.23;37.88;62.92;;
56099;Laerm;44276;49.534;6.378;2024-03-02T00:26:12;42.57;37.88;59.34;;
56099;Laerm;44276;49.534;6.378;2024-03-02T00:28:41;46.97;38.05;67.75;;
56099;Laerm;44276;49.534;6.378;2024-03-02T00:31:12;53.30;38.21;72.33;;
56099;Laerm;44276;49.534;6.378;2024-03-02T00:33:46;47.32;37.70;64.35;;
56099;Laerm;44276;49.534;6.378;2024-03-02T00:36:20;49.05;38.37;71.53;;
56099;Laerm;44276;49.534;6.378;2024-03-02T00:38:53;54.99;38.81;75.00;;
56099;Laerm;44276;49.534;6.378;2024-03-02T00:41:24;45.19;37.88;63.80;;
56099;Laerm;44276;49.534;6.378;2024-03-02T00:44:01;44.18;37.52;58.21;;
56099;Laerm;44276;49.534;6.378;2024-03-02T00:46:34;50.21;38.67;68.33;;
56099;Laerm;44276;49.534;6.378;2024-03-02T00:49:05;45.66;38.52;59.83;;
56099;Laerm;44276;49.534;6.378;2024-03-02T00:51:47;49.03;37.88;65.67;;
56099;Laerm;44276;49.534;6.378;2024-03-02T00:54:22;47.97;38.21;66.29;;
56099;Laerm;44276;49.534;6.378;2024-03-02T00:56:54;45.28;37.70;65.46;;
56099;Laerm;44276;49.534;6.378;2024-03-02T00:59:24;46.50;38.05;64.07;;
56099;Laerm;44276;49.534;6.378;2024-03-02T01:01:57;47.11;37.70;65.14;;
56099;Laerm;44276;49.534;6.378;2024-03-02T01:04:28;50.02;39.08;66.72;;
56099;Laerm;44276;49.534;6.378;2024-03-02T01:06:57;49.06;38.37;65.03;;
56099;Laerm;44276;49.534;6.378;2024-03-02T01:09:27;49.14;37.12;68.82;;
56099;Laerm;44276;49.534;6.378;2024-03-02T01:11:55;48.49;37.88;62.76;;
56099;Laerm;44276;49.534;6.378;2024-03-02T01:14:24;45.38;37.52;63.55;;
56099;Laerm;44276;49.534;6.378;2024-03-02T01:16:52;48.93;37.88;70.21;;
56099;Laerm;44276;49.534;6.378;2024-03-02T01:19:20;46.03;37.32;61.24;;
56099;Laerm;44276;49.534;6.378;2024-03-02T01:21:49;43.46;38.05;56.05;;
56099;Laerm;44276;49.534;6.378;2024-03-02T01:24:18;48.84;37.32;66.78;;
56099;Laerm;44276;49.534;6.378;2024-03-02T01:26:48;46.10;37.70;62.18;;
56099;Laerm;44276;49.534;6.378;2024-03-02T01:29:17;49.23;37.88;65.00;;
56099;Laerm;44276;49.534;6.378;2024-03-02T01:31:46;43.31;37.32;59.15;;
56099;Laerm;44276;49.534;6.378;2024-03-02T01:34:17;43.82;37.70;58.28;;
56099;Laerm;44276;49.534;6.378;2024-03-02T01:36:49;48.56;38.21;64.91;;
56099;Laerm;44276;49.534;6.378;2024-03-02T01:39:21;45.47;36.98;64.02;;
56099;Laerm;44276;49.534;6.378;2024-03-02T01:41:52;42.56;36.69;54.92;;
56099;Laerm;44276;49.534;6.378;2024-03-02T01:44:21;43.27;37.32;63.02;;
56099;Laerm;44276;49.534;6.378;2024-03-02T01:46:49;43.21;37.52;60.24;;
56099;Laerm;44276;49.534;6.378;2024-03-02T01:49:18;47.16;37.32;61.39;;
56099;Laerm;44276;49.534;6.378;2024-03-02T01:51:47;44.42;37.70;60.89;;
56099;Laerm;44276;49.534;6.378;2024-03-02T01:54:17;48.17;37.52;67.32;;
56099;Laerm;44276;49.534;6.378;2024-03-02T01:56:52;47.15;37.12;62.57;;
56099;Laerm;44276;49.534;6.378;2024-03-02T01:59:24;49.60;37.70;68.01;;
56099;Laerm;44276;49.534;6.378;2024-03-02T02:01:56;45.87;37.32;61.05;;
56099;Laerm;44276;49.534;6.378;2024-03-02T02:04:28;42.48;37.70;56.64;;
56099;Laerm;44276;49.534;6.378;2024-03-02T02:07:01;42.44;37.52;53.96;;
56099;Laerm;44276;49.534;6.378;2024-03-02T02:09:34;42.68;37.32;52.31;;
56099;Laerm;44276;49.534;6.378;2024-03-02T02:12:26;42.34;37.12;57.79;;
56099;Laerm;44276;49.534;6.378;2024-03-02T02:14:59;42.97;37.53;56.54;;
56099;Laerm;44276;49.534;6.378;2024-03-02T02:17:38;45.77;37.32;63.36;;
56099;Laerm;44276;49.534;6.378;2024-03-02T02:20:11;46.77;37.70;62.87;;
56099;Laerm;44276;49.534;6.378;2024-03-02T02:22:58;45.43;37.32;59.32;;
56099;Laerm;44276;49.534;6.378;2024-03-02T02:25:27;45.07;37.52;61.23;;
56099;Laerm;44276;49.534;6.378;2024-03-02T02:28:00;44.59;37.12;62.18;;
56099;Laerm;44276;49.534;6.378;2024-03-02T02:30:31;43.13;37.70;55.99;;
56099;Laerm;44276;49.534;6.378;2024-03-02T02:33:01;42.21;37.88;51.91;;
56099;Laerm;44276;49.534;6.378;2024-03-02T02:35:32;41.77;36.91;54.39;;
56099;Laerm;44276;49.534;6.378;2024-03-02T02:38:06;44.48;37.52;58.93;;
56099;Laerm;44276;49.534;6.378;2024-03-02T02:40:37;42.42;38.05;51.55;;
56099;Laerm;44276;49.534;6.378;2024-03-02T02:43:09;42.84;37.32;56.44;;
56099;Laerm;44276;49.534;6.378;2024-03-02T02:45:37;46.45;38.05;63.92;;
56099;Laerm;44276;49.534;6.378;2024-03-02T02:48:07;42.71;37.32;54.89;;
56099;Laerm;44276;49.534;6.378;2024-03-02T02:50:51;41.67;37.12;50.89;;
56099;Laerm;44276;49.534;6.378;2024-03-02T02:53:28;41.48;37.70;49.55;;
56099;Laerm;44276;49.534;6.378;2024-03-02T02:55:56;43.16;38.21;55.94;;
56099;Laerm;44276;49.534;6.378;2024-03-02T02:58:27;44.18;37.53;56.40;;
56099;Laerm;44276;49.534;6.378;2024-03-02T03:00:57;43.19;36.45;59.34;;
56099;Laerm;44276;49.534;6.378;2024-03-02T03:03:25;43.27;38.21;58.46;;
56099;Laerm;44276;49.534;6.378;2024-03-02T03:05:54;45.84;37.52;64.55;;
56099;Laerm;44276;49.534;6.378;2024-03-02T03:08:22;46.97;38.67;68.28;;
56099;Laerm;44276;49.534;6.378;2024-03-02T03:10:52;44.88;38.21;60.41;;
56099;Laerm;44276;49.534;6.378;2024-03-02T03:13:20;43.67;38.95;56.24;;
56099;Laerm;44276;49.534;6.378;2024-03-02T03:15:49;42.02;38.37;53.02;;
56099;Laerm;44276;49.534;6.378;2024-03-02T03:18:18;42.73;38.18;54.72;;
56099;Laerm;44276;49.534;6.378;2024-03-02T03:20:46;41.85;38.52;47.04;;
56099;Laerm;44276;49.534;6.378;2024-03-02T03:23:15;43.44;37.70;59.88;;
56099;Laerm;44276;49.534;6.378;2024-03-02T03:25:44;41.63;37.70;50.45;;
56099;Laerm;44276;49.534;6.378;2024-03-02T03:28:13;41.35;38.02;46.45;;
56099;Laerm;44276;49.534;6.378;2024-03-02T03:30:41;42.23;38.21;51.20;;
56099;Laerm;44276;49.534;6.378;2024-03-02T03:33:10;41.40;37.32;51.39;;
56099;Laerm;44276;49.534;6.378;2024-03-02T03:35:38;41.04;37.52;47.32;;
56099;Laerm;44276;49.534;6.378;2024-03-02T03:38:09;41.19;37.52;46.55;;
56099;Laerm;44276;49.534;6.378;2024-03-02T03:40:38;41.67;36.91;51.37;;
56099;Laerm;44276;49.534;6.378;2024-03-02T03:43:07;41.77;37.12;50.68;;
56099;Laerm;44276;49.534;6.378;2024-03-02T03:45:40;41.60;38.05;52.70;;
56099;Laerm;44276;49.534;6.378;2024-03-02T03:48:11;41.51;37.53;47.74;;
56099;Laerm;44276;49.534;6.378;2024-03-02T03:50:39;41.85;37.88;49.89;;
56099;Laerm;44276;49.534;6.378;2024-03-02T03:53:08;40.89;37.70;46.10;;
56099;Laerm;44276;49.534;6.378;2024-03-02T03:55:36;40.62;37.88;45.45;;
56099;Laerm;44276;49.534;6.378;2024-03-02T03:58:05;40.79;37.88;45.66;;
56099;Laerm;44276;49.534;6.378;2024-03-02T04:00:33;41.55;37.88;47.90;;
56099;Laerm;44276;49.534;6.378;2024-03-02T04:03:04;41.09;37.32;45.23;;
56099;Laerm;44276;49.534;6.378;2024-03-02T04:05:36;40.70;37.70;44.87;;
56099;Laerm;44276;49.534;6.378;2024-03-02T04:08:06;41.35;37.88;46.66;;
56099;Laerm;44276;49.534;6.378;2024-03-02T04:10:35;42.01;38.21;48.60;;
56099;Laerm;44276;49.534;6.378;2024-03-02T04:13:06;41.41;37.52;47.20;;
56099;Laerm;44276;49.534;6.378;2024-03-02T04:15:34;42.87;38.05;53.52;;
56099;Laerm;44276;49.534;6.378;2024-03-02T04:18:05;41.96;38.37;50.02;;
56099;Laerm;44276;49.534;6.378;2024-03-02T04:20:33;42.64;38.67;52.39;;
56099;Laerm;44276;49.534;6.378;2024-03-02T04:23:01;41.23;37.52;47.70;;
56099;Laerm;44276;49.534;6.378;2024-03-02T04:25:30;41.82;37.32;50.56;;
56099;Laerm;44276;49.534;6.378;2024-03-02T04:27:58;41.47;38.21;47.52;;
56099;Laerm;44276;49.534;6.378;2024-03-02T04:30:27;40.89;37.70;46.38;;
56099;Laerm;44276;49.534;6.378;2024-03-02T04:32:55;41.15;38.05;47.02;;
56099;Laerm;44276;49.534;6.378;2024-03-02T04:35:25;41.67;37.52;48.29;;
56099;Laerm;44276;49.534;6.378;2024-03-02T04:37:56;42.11;38.05;53.95;;
56099;Laerm;44276;49.534;6.378;2024-03-02T04:40:24;42.51;38.05;53.26;;
56099;Laerm;44276;49.534;6.378;2024-03-02T04:42:53;41.39;37.88;46.40;;
56099;Laerm;44276;49.534;6.378;2024-03-02T04:45:26;41.75;38.37;50.23;;
56099;Laerm;44276;49.534;6.378;2024-03-02T04:47:56;41.30;38.37;48.36;;
56099;Laerm;44276;49.534;6.378;2024-03-02T04:50:25;42.01;38.52;49.33;;
56099;Laerm;44276;49.534;6.378;2024-03-02T04:52:57;41.61;38.52;49.03;;
56099;Laerm;44276;49.534;6.378;2024-03-02T04:55:25;41.13;38.21;46.52;;
56099;Laerm;44276;49.534;6.378;2024-03-02T04:58:18;41.13;37.52;47.34;;
56099;Laerm;44276;49.534;6.378;2024-03-02T05:00:50;41.70;37.88;47.02;;
56099;Laerm;44276;49.534;6.378;2024-03-02T05:03:18;41.27;38.37;46.76;;
56099;Laerm;44276;49.534;6.378;2024-03-02T05:05:49;41.62;38.52;47.08;;
56099;Laerm;44276;49.534;6.378;2024-03-02T05:08:18;41.10;38.32;45.72;;
56099;Laerm;44276;49.534;6.378;2024-03-02T05:10:48;42.25;38.95;49.39;;
56099;Laerm;44276;49.534;6.378;2024-03-02T05:13:17;41.81;38.95;48.63;;
56099;Laerm;44276;49.534;6.378;2024-03-02T05:15:44;41.63;38.95;47.14;;
56099;Laerm;44276;49.534;6.378;2024-03-02T05:18:13;41.61;38.95;52.27;;
56099;Laerm;44276;49.534;6.378;2024-03-02T05:20:52;41.61;38.95;52.67;;
56099;Laerm;44276;49.534;6.378;2024-03-02T05:23:21;41.49;39.21;46.73;;
56099;Laerm;44276;49.534;6.378;2024-03-02T05:25:52;42.70;39.21;51.23;;
56099;Laerm;44276;49.534;6.378;2024-03-02T05:28:21;41.64;39.08;47.95;;
56099;Laerm;44276;49.534;6.378;2024-03-02T05:30:52;42.66;39.08;49.30;;
56099;Laerm;44276;49.534;6.378;2024-03-02T05:33:26;41.50;39.21;45.30;;
56099;Laerm;44276;49.534;6.378;2024-03-02T05:36:01;42.59;39.46;49.56;;
56099;Laerm;44276;49.534;6.378;2024-03-02T05:38:32;41.89;38.95;51.14;;
56099;Laerm;44276;49.534;6.378;2024-03-02T05:41:08;42.73;39.46;55.99;;
56099;Laerm;44276;49.534;6.378;2024-03-02T05:43:42;42.23;39.70;46.55;;
56099;Laerm;44276;49.534;6.378;2024-03-02T05:46:19;42.25;39.46;48.73;;
56099;Laerm;44276;49.534;6.378;2024-03-02T05:48:50;42.19;39.34;49.24;;
56099;Laerm;44276;49.534;6.378;2024-03-02T05:51:22;42.28;39.58;47.32;;
56099;Laerm;44276;49.534;6.378;2024-03-02T05:53:52;42.07;39.58;53.87;;
56099;Laerm;44276;49.534;6.378;2024-03-02T05:56:24;42.55;39.34;48.96;;
56099;Laerm;44276;49.534;6.378;2024-03-02T05:58:57;42.02;39.34;48.00;;
56099;Laerm;44276;49.534;6.378;2024-03-02T06:01:46;42.22;39.58;46.59;;
56099;Laerm;44276;49.534;6.378;2024-03-02T06:04:18;43.20;39.34;51.34;;
56099;Laerm;44276;49.534;6.378;2024-03-02T06:07:00;42.49;39.46;47.32;;
56099;Laerm;44276;49.534;6.378;2024-03-02T06:09:32;43.16;39.46;51.07;;
56099;Laerm;44276;49.534;6.378;2024-03-02T06:12:07;42.80;39.70;49.45;;
56099;Laerm;44276;49.534;6.378;2024-03-02T06:14:44;43.04;39.70;49.29;;
56099;Laerm;44276;49.534;6.378;2024-03-02T06:17:18;43.24;39.92;49.77;;
56099;Laerm;44276;49.534;6.378;2024-03-02T06:19:49;42.84;39.57;51.21;;
56099;Laerm;44276;49.534;6.378;2024-03-02T06:22:19;42.70;39.81;47.63;;
56099;Laerm;44276;49.534;6.378;2024-03-02T06:24:57;44.44;39.92;52.83;;
56099;Laerm;44276;49.534;6.378;2024-03-02T06:27:34;42.67;39.92;48.55;;
56099;Laerm;44276;49.534;6.378;2024-03-02T06:30:07;42.65;40.03;49.35;;
56099;Laerm;44276;49.534;6.378;2024-03-02T06:32:38;44.14;39.70;54.29;;
56099;Laerm;44276;49.534;6.378;2024-03-02T06:35:07;43.55;40.03;49.96;;
56099;Laerm;44276;49.534;6.378;2024-03-02T06:37:38;43.99;39.81;53.06;;
56099;Laerm;44276;49.534;6.378;2024-03-02T06:40:09;43.70;40.13;52.08;;
56099;Laerm;44276;49.534;6.378;2024-03-02T06:42:38;43.48;40.13;52.93;;
56099;Laerm;44276;49.534;6.378;2024-03-02T06:45:06;43.62;40.23;50.08;;
56099;Laerm;44276;49.534;6.378;2024-03-02T06:47:35;43.39;40.62;47.84;;
56099;Laerm;44276;49.534;6.378;2024-03-02T06:50:04;44.25;40.43;52.31;;
56099;Laerm;44276;49.534;6.378;2024-03-02T06:52:33;42.76;40.71;46.87;;
56099;Laerm;44276;49.534;6.378;2024-03-02T06:55:07;43.60;40.33;48.43;;
56099;Laerm;44276;49.534;6.378;2024-03-02T06:57:38;43.59;40.62;49.24;;
56099;Laerm;44276;49.534;6.378;2024-03-02T07:00:10;44.16;40.71;50.17;;
56099;Laerm;44276;49.534;6.378;2024-03-02T07:02:45;44.05;40.80;49.98;;
56099;Laerm;44276;49.534;6.378;2024-03-02T07:05:13;43.55;40.43;52.19;;
56099;Laerm;44276;49.534;6.378;2024-03-02T07:07:44;43.06;40.71;48.54;;
56099;Laerm;44276;49.534;6.378;2024-03-02T07:10:21;42.89;40.18;59.17;;
56099;Laerm;44276;49.534;6.378;2024-03-02T07:12:52;43.16;40.89;61.35;;
56099;Laerm;44276;49.534;6.378;2024-03-02T07:15:23;44.58;40.53;52.04;;
56099;Laerm;44276;49.534;6.378;2024-03-02T07:18:11;44.46;40.71;55.94;;
56099;Laerm;44276;49.534;6.378;2024-03-02T07:20:41;44.40;40.80;52.59;;
56099;Laerm;44276;49.534;6.378;2024-03-02T07:23:14;43.44;40.80;48.76;;
56099;Laerm;44276;49.534;6.378;2024-03-02T07:25:43;44.16;40.33;55.63;;
56099;Laerm;44276;49.534;6.378;2024-03-02T07:28:14;43.14;39.34;48.78;;
56099;Laerm;44276;49.534;6.378;2024-03-02T07:30:42;43.14;40.13;47.34;;
56099;Laerm;44276;49.534;6.378;2024-03-02T07:33:15;43.03;40.23;49.38;;
56099;Laerm;44276;49.534;6.378;2024-03-02T07:35:45;44.02;39.46;53.72;;
56099;Laerm;44276;49.534;6.378;2024-03-02T07:38:14;44.70;40.53;52.30;;
56099;Laerm;44276;49.534;6.378;2024-03-02T07:40:44;45.88;40.71;60.51;;
56099;Laerm;44276;49.534;6.378;2024-03-02T07:43:12;46.47;40.80;61.72;;
56099;Laerm;44276;49.534;6.378;2024-03-02T07:45:43;44.01;40.13;51.41;;
56099;Laerm;44276;49.534;6.378;2024-03-02T07:48:19;43.85;40.53;48.90;;
56099;Laerm;44276;49.534;6.378;2024-03-02T07:50:48;43.57;39.92;49.90;;
56099;Laerm;44276;49.534;6.378;2024-03-02T07:53:16;43.85;40.43;49.27;;
56099;Laerm;44276;49.534;6.378;2024-03-02T07:55:45;44.25;40.62;53.63;;
56099;Laerm;44276;49.534;6.378;2024-03-02T07:58:14;44.99;40.33;54.90;;
56099;Laerm;44276;49.534;6.378;2024-03-02T08:00:42;43.92;40.23;52.18;;
56099;Laerm;44276;49.534;6.378;2024-03-02T08:03:10;43.98;40.23;50.86;;
56099;Laerm;44276;49.534;6.378;2024-03-02T08:05:39;43.16;39.58;49.23;;
56099;Laerm;44276;49.534;6.378;2024-03-02T08:08:07;43.52;39.81;47.24;;
56099;Laerm;44276;49.534;6.378;2024-03-02T08:10:36;43.54;40.13;51.78;;
56099;Laerm;44276;49.534;6.378;2024-03-02T08:13:05;43.15;39.92;47.79;;
56099;Laerm;44276;49.534;6.378;2024-03-02T08:15:33;42.84;39.46;48.40;;
56099;Laerm;44276;49.534;6.378;2024-03-02T08:18:02;43.53;40.13;54.65;;
56099;Laerm;44276;49.534;6.378;2024-03-02T08:20:30;43.98;40.03;48.16;;
56099;Laerm;44276;49.534;6.378;2024-03-02T08:22:58;44.21;40.63;50.25;;
56099;Laerm;44276;49.534;6.378;2024-03-02T08:25:27;43.26;39.46;48.94;;
56099;Laerm;44276;49.534;6.378;2024-03-02T08:27:55;44.45;40.33;52.29;;
56099;Laerm;44276;49.534;6.378;2024-03-02T08:30:25;44.63;40.71;56.36;;
56099;Laerm;44276;49.534;6.378;2024-03-02T08:32:53;43.53;40.23;57.40;;
56099;Laerm;44276;49.534;6.378;2024-03-02T08:35:22;43.52;40.13;50.41;;
56099;Laerm;44276;49.534;6.378;2024-03-02T08:37:50;43.80;39.92;60.81;;
56099;Laerm;44276;49.534;6.378;2024-03-02T08:40:18;43.32;39.81;49.57;;
56099;Laerm;44276;49.534;6.378;2024-03-02T08:42:47;43.51;39.70;50.35;;
56099;Laerm;44276;49.534;6.378;2024-03-02T08:45:15;43.69;40.23;51.94;;
56099;Laerm;44276;49.534;6.378;2024-03-02T08:47:45;43.67;40.13;49.41;;
56099;Laerm;44276;49.534;6.378;2024-03-02T08:50:13;43.51;40.13;56.53;;
56099;Laerm;44276;49.534;6.378;2024-03-02T08:52:42;43.41;40.33;48.03;;
56099;Laerm;44276;49.534;6.378;2024-03-02T08:55:10;42.58;39.70;47.57;;
56099;Laerm;44276;49.534;6.378;2024-03-02T08:57:39;43.34;40.13;50.36;;
56099;Laerm;44276;49.534;6.378;2024-03-02T09:00:10;42.83;40.03;50.71;;
56099;Laerm;44276;49.534;6.378;2024-03-02T09:02:38;43.21;39.81;49.03;;
56099;Laerm;44276;49.534;6.378;2024-03-02T09:05:08;43.27;40.36;54.10;;
56099;Laerm;44276;49.534;6.378;2024-03-02T09:07:36;42.66;39.81;46.80;;
56099;Laerm;44276;49.534;6.378;2024-03-02T09:10:07;42.83;39.89;51.57;;
56099;Laerm;44276;49.534;6.378;2024-03-02T09:12:37;42.65;39.58;50.42;;
56099;Laerm;44276;49.534;6.378;2024-03-02T09:15:07;42.94;40.03;46.71;;
56099;Laerm;44276;49.534;6.378;2024-03-02T09:17:35;42.71;39.34;48.48;;
56099;Laerm;44276;49.534;6.378;2024-03-02T09:20:05;43.65;39.58;52.85;;
56099;Laerm;44276;49.534;6.378;2024-03-02T09:22:35;42.85;39.70;49.12;;
56099;Laerm;44276;49.534;6.378;2024-03-02T09:25:04;43.76;39.70;50.93;;
56099;Laerm;44276;49.534;6.378;2024-03-02T09:27:36;44.16;40.23;51.50;;
56099;Laerm;44276;49.534;6.378;2024-03-02T09:30:09;42.99;39.68;49.25;;
56099;Laerm;44276;49.534;6.378;2024-03-02T09:32:38;43.13;39.92;50.87;;
56099;Laerm;44276;49.534;6.378;2024-03-02T09:35:07;43.34;39.46;50.55;;
56099;Laerm;44276;49.534;6.378;2024-03-02T09:37:37;42.97;40.23;47.12;;
56099;Laerm;44276;49.534;6.378;2024-03-02T09:40:07;43.32;39.58;49.62;;
56099;Laerm;44276;49.534;6.378;2024-03-02T09:42:36;42.94;39.70;49.58;;
56099;Laerm;44276;49.534;6.378;2024-03-02T09:45:06;43.43;39.58;51.67;;
56099;Laerm;44276;49.534;6.378;2024-03-02T09:47:34;43.20;39.58;56.41;;
56099;Laerm;44276;49.534;6.378;2024-03-02T09:50:03;43.00;40.03;48.15;;
56099;Laerm;44276;49.534;6.378;2024-03-02T09:52:33;44.06;39.58;52.51;;
56099;Laerm;44276;49.534;6.378;2024-03-02T09:55:03;43.02;39.81;47.20;;
56099;Laerm;44276;49.534;6.378;2024-03-02T09:57:32;43.05;39.46;48.05;;
56099;Laerm;44276;49.534;6.378;2024-03-02T10:00:01;43.34;39.70;51.47;;
56099;Laerm;44276;49.534;6.378;2024-03-02T10:02:29;43.65;39.81;50.99;;
56099;Laerm;44276;49.534;6.378;2024-03-02T10:04:57;43.15;39.34;54.54;;
56099;Laerm;44276;49.534;6.378;2024-03-02T10:07:26;42.95;38.81;49.73;;
56099;Laerm;44276;49.534;6.378;2024-03-02T10:09:56;43.72;40.71;48.34;;
56099;Laerm;44276;49.534;6.378;2024-03-02T10:12:27;43.20;40.13;46.71;;
56099;Laerm;44276;49.534;6.378;2024-03-02T10:15:04;43.59;39.70;50.11;;
56099;Laerm;44276;49.534;6.378;2024-03-02T10:17:34;44.00;39.46;52.94;;
56099;Laerm;44276;49.534;6.378;2024-03-02T10:20:24;42.55;39.08;48.21;;
56099;Laerm;44276;49.534;6.378;2024-03-02T10:22:52;42.88;39.70;50.16;;
56099;Laerm;44276;49.534;6.378;2024-03-02T10:25:31;44.12;40.03;60.53;;
56099;Laerm;44276;49.534;6.378;2024-03-02T10:28:05;42.81;39.08;47.22;;
56099;Laerm;44276;49.534;6.378;2024-03-02T10:30:33;43.33;39.58;49.19;;
56099;Laerm;44276;49.534;6.378;2024-03-02T10:33:03;42.53;39.46;46.73;;
56099;Laerm;44276;49.534;6.378;2024-03-02T10:35:33;42.93;39.58;50.26;;
56099;Laerm;44276;49.534;6.378;2024-03-02T10:38:04;43.27;39.58;49.21;;
56099;Laerm;44276;49.534;6.378;2024-03-02T10:40:33;43.15;39.81;47.88;;
56099;Laerm;44276;49.534;6.378;2024-03-02T10:43:02;42.81;39.34;46.82;;
56099;Laerm;44276;49.534;6.378;2024-03-02T10:45:34;43.27;40.45;48.80;;
56099;Laerm;44276;49.534;6.378;2024-03-02T10:48:03;42.61;39.46;49.07;;
56099;Laerm;44276;49.534;6.378;2024-03-02T10:50:32;43.06;39.21;48.55;;
56099;Laerm;44276;49.534;6.378;2024-03-02T10:53:01;42.86;39.58;47.39;;
56099;Laerm;44276;49.534;6.378;2024-03-02T10:55:31;43.47;39.70;51.12;;
56099;Laerm;44276;49.534;6.378;2024-03-02T10:58:04;43.15;38.95;47.76;;
56099;Laerm;44276;49.534;6.378;2024-03-02T11:00:38;43.15;39.08;48.10;;
56099;Laerm;44276;49.534;6.378;2024-03-02T11:03:08;42.67;39.46;54.98;;
56099;Laerm;44276;49.534;6.378;2024-03-02T11:05:41;42.99;39.34;50.29;;
56099;Laerm;44276;49.534;6.378;2024-03-02T11:08:16;43.27;39.92;51.28;;
56099;Laerm;44276;49.534;6.378;2024-03-02T11:10:51;42.74;39.08;48.25;;
56099;Laerm;44276;49.534;6.378;2024-03-02T11:13:27;42.80;38.67;51.74;;
56099;Laerm;44276;49.534;6.378;2024-03-02T11:16:08;43.37;38.21;61.07;;
56099;Laerm;44276;49.534;6.378;2024-03-02T11:18:38;43.17;39.08;56.71;;
56099;Laerm;44276;49.534;6.378;2024-03-02T11:21:07;42.22;38.37;48.31;;
56099;Laerm;44276;49.534;6.378;2024-03-02T11:23:36;42.50;39.23;51.40;;
56099;Laerm;44276;49.534;6.378;2024-03-02T11:26:17;43.33;38.52;56.48;;
56099;Laerm;44276;49.534;6.378;2024-03-02T11:28:46;42.79;39.58;47.36;;
56099;Laerm;44276;49.534;6.378;2024-03-02T11:31:17;42.78;38.67;48.29;;
56099;Laerm;44276;49.534;6.378;2024-03-02T11:33:45;42.97;38.47;48.29;;
56099;Laerm;44276;49.534;6.378;2024-03-02T11:36:16;43.19;35.94;49.30;;
56099;Laerm;44276;49.534;6.378;2024-03-02T11:38:45;42.84;39.21;47.32;;
56099;Laerm;44276;49.534;6.378;2024-03-02T11:41:14;42.37;37.88;47.81;;
56099;Laerm;44276;49.534;6.378;2024-03-02T11:43:42;42.35;38.21;49.38;;
56099;Laerm;44276;49.534;6.378;2024-03-02T11:46:16;43.11;37.70;57.86;;
56099;Laerm;44276;49.534;6.378;2024-03-02T11:48:46;42.81;36.45;51.64;;
56099;Laerm;44276;49.534;6.378;2024-03-02T11:51:14;44.04;38.52;55.73;;
56099;Laerm;44276;49.534;6.378;2024-03-02T11:53:43;44.68;36.91;61.33;;
56099;Laerm;44276;49.534;6.378;2024-03-02T11:56:15;42.40;37.70;46.87;;
56099;Laerm;44276;49.534;6.378;2024-03-02T11:58:45;42.06;38.21;46.62;;
56099;Laerm;44276;49.534;6.378;2024-03-02T12:01:16;42.86;37.32;50.22;;
56099;Laerm;44276;49.534;6.378;2024-03-02T12:03:46;42.76;37.70;51.02;;
56099;Laerm;44276;49.534;6.378;2024-03-02T12:06:16;44.87;37.12;61.44;;
56099;Laerm;44276;49.534;6.378;2024-03-02T12:08:46;48.71;40.03;71.89;;
56099;Laerm;44276;49.534;6.378;2024-03-02T12:11:14;47.99;36.45;65.84;;
56099;Laerm;44276;49.534;6.378;2024-03-02T12:13:52;44.86;36.45;58.33;;
56099;Laerm;44276;49.534;6.378;2024-03-02T12:16:25;46.61;34.69;64.02;;
56099;Laerm;44276;49.534;6.378;2024-03-02T12:18:55;45.86;34.69;61.67;;
56099;Laerm;44276;49.534;6.378;2024-03-02T12:21:23;47.12;38.67;60.26;;
56099;Laerm;44276;49.534;6.378;2024-03-02T12:23:52;45.72;38.37;60.13;;
56099;Laerm;44276;49.534;6.378;2024-03-02T12:26:21;46.77;40.33;61.08;;
56099;Laerm;44276;49.534;6.378;2024-03-02T12:28:50;48.27;38.95;67.45;;
56099;Laerm;44276;49.534;6.378;2024-03-02T12:31:18;44.08;37.87;60.63;;
56099;Laerm;44276;49.534;6.378;2024-03-02T12:33:48;47.25;38.05;64.44;;
56099;Laerm;44276;49.534;6.378;2024-03-02T12:36:16;48.75;39.78;66.46;;
56099;Laerm;44276;49.534;6.378;2024-03-02T12:38:46;45.60;38.37;64.03;;
56099;Laerm;44276;49.534;6.378;2024-03-02T12:41:15;51.77;39.81;69.72;;
56099;Laerm;44276;49.534;6.378;2024-03-02T12:43:43;47.58;38.67;67.45;;
56099;Laerm;44276;49.534;6.378;2024-03-02T12:46:11;44.09;37.32;53.87;;
56099;Laerm;44276;49.534;6.378;2024-03-02T12:48:40;43.66;33.90;51.37;;
56099;Laerm;44276;49.534;6.378;2024-03-02T12:51:10;44.74;37.12;60.21;;
56099;Laerm;44276;49.534;6.378;2024-03-02T12:53:38;45.67;36.91;60.95;;
56099;Laerm;44276;49.534;6.378;2024-03-02T12:56:08;46.66;37.32;65.95;;
56099;Laerm;44276;49.534;6.378;2024-03-02T12:58:40;43.85;36.91;58.27;;
56099;Laerm;44276;49.534;6.378;2024-03-02T13:01:08;44.23;38.67;59.89;;
56099;Laerm;44276;49.534;6.378;2024-03-02T13:03:38;44.41;33.44;54.10;;
56099;Laerm;44276;49.534;6.378;2024-03-02T13:06:07;45.21;36.45;58.51;;
56099;Laerm;44276;49.534;6.378;2024-03-02T13:08:38;45.59;37.32;58.29;;
56099;Laerm;44276;49.534;6.378;2024-03-02T13:11:07;45.23;38.95;62.54;;
56099;Laerm;44276;49.534;6.378;2024-03-02T13:13:35;53.10;40.13;69.63;;
56099;Laerm;44276;49.534;6.378;2024-03-02T13:16:08;49.74;38.21;68.04;;
56099;Laerm;44276;49.534;6.378;2024-03-02T13:18:38;45.85;37.70;67.32;;
56099;Laerm;44276;49.534;6.378;2024-03-02T13:21:07;44.50;38.37;62.66;;
56099;Laerm;44276;49.534;6.378;2024-03-02T13:23:37;45.30;35.66;60.03;;
56099;Laerm;44276;49.534;6.378;2024-03-02T13:26:05;44.13;35.04;63.36;;
56099;Laerm;44276;49.534;6.378;2024-03-02T13:28:34;44.63;36.45;59.43;;
56099;Laerm;44276;49.534;6.378;2024-03-02T13:31:03;47.41;39.46;64.57;;
56099;Laerm;44276;49.534;6.378;2024-03-02T13:33:31;44.17;37.52;57.91;;
56099;Laerm;44276;49.534;6.378;2024-03-02T13:36:00;43.02;37.12;54.12;;
56099;Laerm;44276;49.534;6.378;2024-03-02T13:38:29;44.79;37.12;68.03;;
56099;Laerm;44276;49.534;6.378;2024-03-02T13:40:59;44.01;35.04;57.09;;
56099;Laerm;44276;49.534;6.378;2024-03-02T13:43:28;44.46;40.13;58.07;;
56099;Laerm;44276;49.534;6.378;2024-03-02T13:45:59;43.76;39.81;58.36;;
56099;Laerm;44276;49.534;6.378;2024-03-02T13:48:27;44.28;39.46;58.62;;
56099;Laerm;44276;49.534;6.378;2024-03-02T13:50:55;43.24;38.05;53.30;;
56099;Laerm;44276;49.534;6.378;2024-03-02T13:53:24;44.17;40.53;57.67;;
56099;Laerm;44276;49.534;6.378;2024-03-02T13:55:52;42.94;38.05;51.85;;
56099;Laerm;44276;49.534;6.378;2024-03-02T13:58:22;43.68;33.90;58.49;;
56099;Laerm;44276;49.534;6.378;2024-03-02T14:00:50;42.71;37.52;53.41;;
56099;Laerm;44276;49.534;6.378;2024-03-02T14:03:19;46.69;39.46;70.40;;